createdAt,value
2019-02-10T00:08:08.929Z,31.57
2019-02-10T00:18:14.278Z,29.43
2019-02-10T00:28:19.872Z,29.90
2019-02-10T00:38:25.248Z,30.43
2019-02-10T00:48:30.839Z,31.37
2019-02-10T00:58:36.273Z,24.93
2019-02-10T01:08:41.839Z,30.73
2019-02-10T01:19:04.131Z,33.10
2019-02-10T01:29:09.736Z,31.10
2019-02-10T01:39:18.301Z,33.73
2019-02-10T01:49:23.629Z,31.43
2019-02-10T01:59:28.973Z,32.43
2019-02-10T02:09:34.496Z,32.30
2019-02-10T02:19:39.858Z,33.23
2019-02-10T02:29:45.345Z,35.40
2019-02-10T02:39:50.670Z,31.00
2019-02-10T02:49:56.257Z,36.43
2019-02-10T03:00:01.563Z,28.87
2019-02-10T03:10:08.004Z,29.87
2019-02-10T03:20:13.328Z,26.07
2019-02-10T03:30:18.706Z,28.63
2019-02-10T03:40:24.006Z,25.10
2019-02-10T03:50:30.226Z,24.70
2019-02-10T04:00:35.629Z,25.17
2019-02-10T04:10:41.029Z,27.03
2019-02-10T04:20:46.350Z,20.67
2019-02-10T04:30:51.831Z,25.93
2019-02-10T04:40:57.148Z,20.83
2019-02-10T04:51:02.412Z,23.33
2019-02-10T05:01:07.769Z,23.13
2019-02-10T05:11:13.264Z,22.37
2019-02-10T05:21:18.740Z,21.67
2019-02-10T05:31:24.071Z,24.10
2019-02-10T05:41:29.534Z,20.80
2019-02-10T05:51:35.015Z,22.77
2019-02-10T06:02:03.229Z,22.80
2019-02-10T06:12:08.521Z,23.53
2019-02-10T06:22:13.818Z,22.67
2019-02-10T06:32:19.134Z,23.13
2019-02-10T06:42:24.499Z,19.90
2019-02-10T06:52:29.862Z,21.00
2019-02-10T07:03:15.091Z,21.57
2019-02-10T07:13:35.064Z,18.23
2019-02-10T07:24:25.858Z,22.40
2019-02-10T07:35:06.694Z,23.10
2019-02-10T07:45:56.820Z,19.77
2019-02-10T07:56:40.000Z,20.70
2019-02-10T08:07:19.384Z,19.90
2019-02-10T08:17:46.786Z,28.90
2019-02-10T08:28:11.617Z,21.33
2019-02-10T08:39:00.041Z,19.43
2019-02-10T08:49:36.300Z,23.00
2019-02-10T08:59:41.772Z,22.43
2019-02-10T09:09:47.337Z,18.07
2019-02-10T09:19:52.689Z,18.93
2019-02-10T09:29:58.038Z,23.03
2019-02-10T09:40:03.395Z,21.57
2019-02-10T09:50:14.393Z,24.03
2019-02-10T10:00:19.765Z,21.03
2019-02-10T10:10:25.124Z,26.47
2019-02-10T10:20:30.443Z,19.10
2019-02-10T10:30:35.869Z,19.10
2019-02-10T10:40:41.181Z,18.67
2019-02-10T10:50:46.660Z,22.33
2019-02-10T11:00:52.282Z,20.50
2019-02-10T11:10:57.817Z,19.67
2019-02-10T11:21:03.235Z,25.63
2019-02-10T11:31:08.809Z,21.27
2019-02-10T11:41:14.334Z,21.17
2019-02-10T11:51:19.739Z,20.37
2019-02-10T12:01:25.152Z,19.40
2019-02-10T12:11:30.508Z,18.20
2019-02-10T12:21:36.005Z,19.07
2019-02-10T12:31:41.663Z,18.77
2019-02-10T12:41:47.152Z,19.27
2019-02-10T12:51:52.792Z,19.27
2019-02-10T13:01:58.284Z,19.03
2019-02-10T13:12:03.798Z,17.23
2019-02-10T13:22:09.370Z,18.47
2019-02-10T13:32:14.708Z,20.70
2019-02-10T13:42:20.153Z,18.87
2019-02-10T13:52:25.963Z,17.73
2019-02-10T14:02:31.524Z,21.50
2019-02-10T14:12:37.046Z,31.80
2019-02-10T14:22:42.548Z,31.87
2019-02-10T14:32:47.958Z,21.83
2019-02-10T14:42:53.486Z,21.97
2019-02-10T14:52:59.072Z,20.23
2019-02-10T15:03:04.581Z,24.13
2019-02-10T15:13:10.019Z,28.23
2019-02-10T15:23:15.489Z,26.93
2019-02-10T15:33:21.130Z,29.17
2019-02-10T15:43:26.532Z,30.30
2019-02-10T15:53:32.225Z,30.63
2019-02-10T16:03:37.587Z,29.87
2019-02-10T16:13:42.985Z,31.17
2019-02-10T16:23:48.395Z,34.30
2019-02-10T16:33:53.735Z,35.67
2019-02-10T16:43:59.221Z,30.33
2019-02-10T16:54:04.745Z,40.93
2019-02-10T17:04:10.061Z,37.60
2019-02-10T17:14:15.419Z,42.30
2019-02-10T17:24:21.152Z,36.50
2019-02-10T17:34:26.685Z,40.50
2019-02-10T17:44:32.054Z,38.27
2019-02-10T17:54:37.414Z,35.97
2019-02-10T18:04:42.809Z,37.80
2019-02-10T18:15:05.921Z,37.23
2019-02-10T18:25:31.245Z,36.97
2019-02-10T18:35:59.426Z,40.03
2019-02-10T18:46:24.736Z,39.90
2019-02-10T18:56:40.191Z,39.00
2019-02-10T19:06:53.814Z,36.73
2019-02-10T19:17:09.951Z,40.33
2019-02-10T19:27:38.417Z,37.40
2019-02-10T19:37:59.934Z,40.30
2019-02-10T19:48:33.300Z,41.63
2019-02-10T19:58:57.648Z,41.03
2019-02-10T20:09:28.236Z,40.70
2019-02-10T20:20:02.968Z,39.97
2019-02-10T20:30:26.084Z,41.17
2019-02-10T20:40:45.462Z,43.13
2019-02-10T20:51:07.986Z,42.27
2019-02-10T21:01:29.201Z,43.90
2019-02-10T21:11:52.210Z,40.90
2019-02-10T21:22:06.463Z,43.20
2019-02-10T21:32:24.258Z,43.17
2019-02-10T21:42:36.008Z,41.60
2019-02-10T21:52:41.504Z,44.17
2019-02-10T22:02:46.849Z,43.20
2019-02-10T22:12:52.255Z,40.70
2019-02-10T22:22:57.619Z,53.50
2019-02-10T22:33:02.899Z,50.40
2019-02-10T22:43:08.338Z,42.50
2019-02-10T22:53:13.623Z,43.87
2019-02-10T23:03:19.033Z,46.00
2019-02-10T23:13:24.544Z,44.43
2019-02-10T23:23:29.845Z,38.70
2019-02-10T23:33:35.235Z,44.70
2019-02-10T23:43:40.578Z,40.13
2019-02-10T23:53:45.891Z,59.07
